aviador You're here:

LBSF Decoded Metar

SOFIA in BULGARIA
Report Time2017-10-24 02:00:00
UTC Time2017-10-24 02:23:31
Flight Rules ifr IFR
Wind260° at 12 kt
W.Decomp.*RWY 27: 11.7 kt HW 2.7 kt LCW
W.Rank260° ranks 18
Current wind is above 260° avg. (7.4)
Visibility9999 m
Phenomena:N/A
Clouds:Overcast 008 Hf
Expected CloudBase > 400 ft AGL from Temp-Dew spread
Ceiling800 ft
Temp08°C (ISA -3)
Dew Point07°C (93% RH)
AAT3.0°C
QNH1002 hPa
Density Alt2,096 ft
Elevation1,952 ft
Report Wrong Elevation
Raw Report
LBSF 240200Z 26012KT 9999 OVC008 08/07 Q1002 NOSIG=

Extra information for LBSF:More info

Metar Taf Metar & Taf Last 4 Metars F.Rules Stats Wind Profile Meteogram Temp Stats Airport Information Weather charts Add Link Nearby VenuesMetar ALERT Operation Metar Decoded Social comments